sensor_id;sensor_type;location;lat;lon;timestamp;P1;durP1;ratioP1;P2;durP2;ratioP2
15130;SDS011;7666;50.920;4.628;2023-03-01T00:00:40;14.20;;;10.60;;
15130;SDS011;7666;50.920;4.628;2023-03-01T00:03:26;16.47;;;11.83;;
15130;SDS011;7666;50.920;4.628;2023-03-01T00:06:12;11.53;;;10.33;;
15130;SDS011;7666;50.920;4.628;2023-03-01T00:08:58;13.13;;;10.50;;
15130;SDS011;7666;50.920;4.628;2023-03-01T00:11:45;11.00;;;9.77;;
15130;SDS011;7666;50.920;4.628;2023-03-01T00:14:31;11.87;;;10.60;;
15130;SDS011;7666;50.920;4.628;2023-03-01T00:17:17;12.30;;;10.77;;
15130;SDS011;7666;50.920;4.628;2023-03-01T00:20:04;11.37;;;10.17;;
15130;SDS011;7666;50.920;4.628;2023-03-01T00:22:55;12.93;;;10.83;;
15130;SDS011;7666;50.920;4.628;2023-03-01T00:25:42;12.47;;;10.93;;
15130;SDS011;7666;50.920;4.628;2023-03-01T00:28:28;11.47;;;10.27;;
15130;SDS011;7666;50.920;4.628;2023-03-01T00:31:15;12.67;;;10.30;;
15130;SDS011;7666;50.920;4.628;2023-03-01T00:34:06;13.63;;;10.53;;
15130;SDS011;7666;50.920;4.628;2023-03-01T00:36:52;13.97;;;11.07;;
15130;SDS011;7666;50.920;4.628;2023-03-01T00:39:38;12.83;;;10.63;;
15130;SDS011;7666;50.920;4.628;2023-03-01T00:42:24;13.50;;;12.10;;
15130;SDS011;7666;50.920;4.628;2023-03-01T00:45:09;13.07;;;11.67;;
15130;SDS011;7666;50.920;4.628;2023-03-01T00:47:56;12.20;;;10.93;;
15130;SDS011;7666;50.920;4.628;2023-03-01T00:50:42;14.40;;;11.77;;
15130;SDS011;7666;50.920;4.628;2023-03-01T00:53:28;13.17;;;11.57;;
15130;SDS011;7666;50.920;4.628;2023-03-01T00:56:14;13.30;;;11.90;;
15130;SDS011;7666;50.920;4.628;2023-03-01T00:59:00;12.83;;;10.73;;
15130;SDS011;7666;50.920;4.628;2023-03-01T01:01:46;20.77;;;13.27;;
15130;SDS011;7666;50.920;4.628;2023-03-01T01:04:32;22.27;;;14.33;;
15130;SDS011;7666;50.920;4.628;2023-03-01T01:07:18;18.37;;;12.70;;
15130;SDS011;7666;50.920;4.628;2023-03-01T01:10:08;15.07;;;12.47;;
15130;SDS011;7666;50.920;4.628;2023-03-01T01:12:58;13.70;;;11.73;;
15130;SDS011;7666;50.920;4.628;2023-03-01T01:15:44;14.90;;;11.70;;
15130;SDS011;7666;50.920;4.628;2023-03-01T01:18:30;12.93;;;11.57;;
15130;SDS011;7666;50.920;4.628;2023-03-01T01:21:17;12.50;;;11.00;;
15130;SDS011;7666;50.920;4.628;2023-03-01T01:24:04;14.97;;;11.60;;
15130;SDS011;7666;50.920;4.628;2023-03-01T01:26:51;12.57;;;11.27;;
15130;SDS011;7666;50.920;4.628;2023-03-01T01:29:37;13.17;;;11.87;;
15130;SDS011;7666;50.920;4.628;2023-03-01T01:32:23;14.33;;;12.17;;
15130;SDS011;7666;50.920;4.628;2023-03-01T01:35:09;12.77;;;11.47;;
15130;SDS011;7666;50.920;4.628;2023-03-01T01:37:55;14.30;;;12.00;;
15130;SDS011;7666;50.920;4.628;2023-03-01T01:40:47;12.63;;;11.37;;
15130;SDS011;7666;50.920;4.628;2023-03-01T01:43:35;12.70;;;11.23;;
15130;SDS011;7666;50.920;4.628;2023-03-01T01:46:28;13.03;;;11.73;;
15130;SDS011;7666;50.920;4.628;2023-03-01T01:52:34;13.83;;;11.77;;
15130;SDS011;7666;50.920;4.628;2023-03-01T01:55:24;13.00;;;11.63;;
15130;SDS011;7666;50.920;4.628;2023-03-01T01:58:13;13.60;;;12.20;;
15130;SDS011;7666;50.920;4.628;2023-03-01T02:01:03;12.20;;;11.00;;
15130;SDS011;7666;50.920;4.628;2023-03-01T02:03:49;13.90;;;12.33;;
15130;SDS011;7666;50.920;4.628;2023-03-01T02:06:39;12.63;;;11.33;;
15130;SDS011;7666;50.920;4.628;2023-03-01T02:09:33;13.50;;;11.53;;
15130;SDS011;7666;50.920;4.628;2023-03-01T02:12:21;15.53;;;11.37;;
15130;SDS011;7666;50.920;4.628;2023-03-01T02:15:09;12.90;;;11.47;;
15130;SDS011;7666;50.920;4.628;2023-03-01T02:17:56;12.97;;;11.47;;
15130;SDS011;7666;50.920;4.628;2023-03-01T02:23:49;11.20;;;9.80;;
15130;SDS011;7666;50.920;4.628;2023-03-01T02:26:37;12.87;;;10.53;;
15130;SDS011;7666;50.920;4.628;2023-03-01T02:29:40;12.00;;;10.37;;
15130;SDS011;7666;50.920;4.628;2023-03-01T02:32:28;14.20;;;11.53;;
15130;SDS011;7666;50.920;4.628;2023-03-01T02:35:15;12.97;;;11.60;;
15130;SDS011;7666;50.920;4.628;2023-03-01T02:38:03;13.27;;;11.87;;
15130;SDS011;7666;50.920;4.628;2023-03-01T02:40:52;13.53;;;11.90;;
15130;SDS011;7666;50.920;4.628;2023-03-01T02:43:41;13.60;;;10.83;;
15130;SDS011;7666;50.920;4.628;2023-03-01T02:46:27;16.57;;;12.17;;
15130;SDS011;7666;50.920;4.628;2023-03-01T02:55:06;13.00;;;11.13;;
15130;SDS011;7666;50.920;4.628;2023-03-01T02:57:54;12.30;;;10.90;;
15130;SDS011;7666;50.920;4.628;2023-03-01T03:00:42;13.87;;;12.47;;
15130;SDS011;7666;50.920;4.628;2023-03-01T03:03:32;12.93;;;11.53;;
15130;SDS011;7666;50.920;4.628;2023-03-01T03:06:18;13.50;;;11.03;;
15130;SDS011;7666;50.920;4.628;2023-03-01T03:09:05;12.23;;;10.93;;
15130;SDS011;7666;50.920;4.628;2023-03-01T03:11:51;11.90;;;10.70;;
15130;SDS011;7666;50.920;4.628;2023-03-01T03:14:37;13.10;;;11.70;;
15130;SDS011;7666;50.920;4.628;2023-03-01T03:17:23;13.20;;;11.90;;
15130;SDS011;7666;50.920;4.628;2023-03-01T03:20:10;14.40;;;11.20;;
15130;SDS011;7666;50.920;4.628;2023-03-01T03:22:58;12.53;;;11.30;;
15130;SDS011;7666;50.920;4.628;2023-03-01T03:25:44;11.57;;;10.40;;
15130;SDS011;7666;50.920;4.628;2023-03-01T03:28:33;11.77;;;10.57;;
15130;SDS011;7666;50.920;4.628;2023-03-01T03:31:19;12.43;;;11.23;;
15130;SDS011;7666;50.920;4.628;2023-03-01T03:34:05;11.40;;;10.30;;
15130;SDS011;7666;50.920;4.628;2023-03-01T03:36:54;12.13;;;10.83;;
15130;SDS011;7666;50.920;4.628;2023-03-01T03:39:42;12.47;;;11.03;;
15130;SDS011;7666;50.920;4.628;2023-03-01T03:42:28;12.27;;;10.63;;
15130;SDS011;7666;50.920;4.628;2023-03-01T03:45:14;12.03;;;10.83;;
15130;SDS011;7666;50.920;4.628;2023-03-01T03:48:04;12.97;;;11.53;;
15130;SDS011;7666;50.920;4.628;2023-03-01T03:50:52;13.30;;;11.90;;
15130;SDS011;7666;50.920;4.628;2023-03-01T03:53:40;11.87;;;10.67;;
15130;SDS011;7666;50.920;4.628;2023-03-01T03:56:26;13.00;;;11.43;;
15130;SDS011;7666;50.920;4.628;2023-03-01T03:59:12;12.30;;;11.10;;
15130;SDS011;7666;50.920;4.628;2023-03-01T04:01:58;12.93;;;10.93;;
15130;SDS011;7666;50.920;4.628;2023-03-01T04:04:44;12.20;;;10.77;;
15130;SDS011;7666;50.920;4.628;2023-03-01T04:07:30;11.87;;;10.60;;
15130;SDS011;7666;50.920;4.628;2023-03-01T04:10:17;13.07;;;11.00;;
15130;SDS011;7666;50.920;4.628;2023-03-01T04:13:04;12.17;;;10.90;;
15130;SDS011;7666;50.920;4.628;2023-03-01T04:15:51;11.73;;;10.53;;
15130;SDS011;7666;50.920;4.628;2023-03-01T04:18:38;10.87;;;9.77;;
15130;SDS011;7666;50.920;4.628;2023-03-01T04:21:24;11.53;;;10.33;;
15130;SDS011;7666;50.920;4.628;2023-03-01T04:24:10;12.63;;;10.60;;
15130;SDS011;7666;50.920;4.628;2023-03-01T04:26:57;12.80;;;10.57;;
15130;SDS011;7666;50.920;4.628;2023-03-01T04:29:43;11.43;;;10.13;;
15130;SDS011;7666;50.920;4.628;2023-03-01T04:32:29;11.47;;;10.27;;
15130;SDS011;7666;50.920;4.628;2023-03-01T04:35:15;11.90;;;10.63;;
15130;SDS011;7666;50.920;4.628;2023-03-01T04:38:02;12.20;;;10.50;;
15130;SDS011;7666;50.920;4.628;2023-03-01T04:40:49;11.53;;;10.30;;
15130;SDS011;7666;50.920;4.628;2023-03-01T04:43:35;11.53;;;10.33;;
15130;SDS011;7666;50.920;4.628;2023-03-01T04:46:22;11.53;;;10.37;;
15130;SDS011;7666;50.920;4.628;2023-03-01T04:49:08;11.93;;;10.73;;
15130;SDS011;7666;50.920;4.628;2023-03-01T04:51:54;11.63;;;10.43;;
15130;SDS011;7666;50.920;4.628;2023-03-01T04:54:40;11.73;;;10.53;;
15130;SDS011;7666;50.920;4.628;2023-03-01T04:57:26;11.90;;;10.27;;
15130;SDS011;7666;50.920;4.628;2023-03-01T05:00:12;11.70;;;10.60;;
15130;SDS011;7666;50.920;4.628;2023-03-01T05:03:07;11.17;;;9.77;;
15130;SDS011;7666;50.920;4.628;2023-03-01T05:05:54;10.97;;;9.70;;
15130;SDS011;7666;50.920;4.628;2023-03-01T05:08:45;12.30;;;10.30;;
15130;SDS011;7666;50.920;4.628;2023-03-01T05:11:31;12.83;;;10.80;;
15130;SDS011;7666;50.920;4.628;2023-03-01T05:14:21;11.70;;;10.50;;
15130;SDS011;7666;50.920;4.628;2023-03-01T05:17:07;12.93;;;10.97;;
15130;SDS011;7666;50.920;4.628;2023-03-01T05:19:53;13.70;;;11.10;;
15130;SDS011;7666;50.920;4.628;2023-03-01T05:22:40;11.37;;;9.90;;
15130;SDS011;7666;50.920;4.628;2023-03-01T05:25:26;11.30;;;10.20;;
15130;SDS011;7666;50.920;4.628;2023-03-01T05:28:18;12.30;;;10.17;;
15130;SDS011;7666;50.920;4.628;2023-03-01T05:31:05;11.93;;;10.63;;
15130;SDS011;7666;50.920;4.628;2023-03-01T05:33:54;12.83;;;10.57;;
15130;SDS011;7666;50.920;4.628;2023-03-01T05:36:40;11.27;;;10.13;;
15130;SDS011;7666;50.920;4.628;2023-03-01T05:39:27;12.40;;;10.70;;
15130;SDS011;7666;50.920;4.628;2023-03-01T05:42:14;10.93;;;9.67;;
15130;SDS011;7666;50.920;4.628;2023-03-01T05:45:00;11.87;;;9.83;;
15130;SDS011;7666;50.920;4.628;2023-03-01T05:47:46;12.03;;;10.20;;
15130;SDS011;7666;50.920;4.628;2023-03-01T05:50:38;13.00;;;10.30;;
15130;SDS011;7666;50.920;4.628;2023-03-01T05:53:25;12.00;;;10.50;;
15130;SDS011;7666;50.920;4.628;2023-03-01T05:56:11;11.63;;;10.37;;
15130;SDS011;7666;50.920;4.628;2023-03-01T05:58:57;12.67;;;10.20;;
15130;SDS011;7666;50.920;4.628;2023-03-01T06:01:43;10.60;;;9.50;;
15130;SDS011;7666;50.920;4.628;2023-03-01T06:04:29;15.77;;;10.20;;
15130;SDS011;7666;50.920;4.628;2023-03-01T06:07:15;11.20;;;10.00;;
15130;SDS011;7666;50.920;4.628;2023-03-01T06:10:02;13.57;;;10.73;;
15130;SDS011;7666;50.920;4.628;2023-03-01T06:12:49;14.90;;;11.67;;
15130;SDS011;7666;50.920;4.628;2023-03-01T06:15:35;12.70;;;10.73;;
15130;SDS011;7666;50.920;4.628;2023-03-01T06:18:21;13.50;;;10.83;;
15130;SDS011;7666;50.920;4.628;2023-03-01T06:21:07;12.43;;;10.30;;
15130;SDS011;7666;50.920;4.628;2023-03-01T06:23:53;11.20;;;10.00;;
15130;SDS011;7666;50.920;4.628;2023-03-01T06:26:39;11.57;;;10.43;;
15130;SDS011;7666;50.920;4.628;2023-03-01T06:29:25;11.63;;;10.40;;
15130;SDS011;7666;50.920;4.628;2023-03-01T06:32:11;12.60;;;10.30;;
15130;SDS011;7666;50.920;4.628;2023-03-01T06:34:57;11.03;;;9.93;;
15130;SDS011;7666;50.920;4.628;2023-03-01T06:37:44;12.63;;;10.67;;
15130;SDS011;7666;50.920;4.628;2023-03-01T06:40:31;11.57;;;10.33;;
15130;SDS011;7666;50.920;4.628;2023-03-01T06:43:17;11.50;;;10.40;;
15130;SDS011;7666;50.920;4.628;2023-03-01T06:46:04;11.27;;;10.10;;
15130;SDS011;7666;50.920;4.628;2023-03-01T06:48:52;10.83;;;9.63;;
15130;SDS011;7666;50.920;4.628;2023-03-01T06:51:38;10.67;;;9.03;;
15130;SDS011;7666;50.920;4.628;2023-03-01T06:54:24;9.67;;;8.40;;
15130;SDS011;7666;50.920;4.628;2023-03-01T06:57:10;8.87;;;7.77;;
15130;SDS011;7666;50.920;4.628;2023-03-01T06:59:56;9.67;;;7.23;;
15130;SDS011;7666;50.920;4.628;2023-03-01T07:02:42;8.33;;;7.43;;
15130;SDS011;7666;50.920;4.628;2023-03-01T07:05:28;7.40;;;6.70;;
15130;SDS011;7666;50.920;4.628;2023-03-01T07:08:15;7.53;;;6.73;;
15130;SDS011;7666;50.920;4.628;2023-03-01T07:11:01;7.80;;;6.27;;
15130;SDS011;7666;50.920;4.628;2023-03-01T07:13:50;9.33;;;7.27;;
15130;SDS011;7666;50.920;4.628;2023-03-01T07:16:37;7.10;;;6.40;;
15130;SDS011;7666;50.920;4.628;2023-03-01T07:19:22;7.60;;;6.43;;
15130;SDS011;7666;50.920;4.628;2023-03-01T07:22:09;7.00;;;6.30;;
15130;SDS011;7666;50.920;4.628;2023-03-01T07:24:55;10.23;;;6.30;;
15130;SDS011;7666;50.920;4.628;2023-03-01T07:27:41;6.20;;;5.50;;
15130;SDS011;7666;50.920;4.628;2023-03-01T07:30:27;6.60;;;5.90;;
15130;SDS011;7666;50.920;4.628;2023-03-01T07:33:13;6.60;;;5.80;;
15130;SDS011;7666;50.920;4.628;2023-03-01T07:36:00;6.90;;;6.20;;
15130;SDS011;7666;50.920;4.628;2023-03-01T07:38:48;7.90;;;6.47;;
15130;SDS011;7666;50.920;4.628;2023-03-01T07:41:34;8.47;;;6.10;;
15130;SDS011;7666;50.920;4.628;2023-03-01T07:44:20;7.47;;;6.67;;
15130;SDS011;7666;50.920;4.628;2023-03-01T07:47:07;10.50;;;6.63;;
15130;SDS011;7666;50.920;4.628;2023-03-01T07:49:52;8.03;;;6.93;;
15130;SDS011;7666;50.920;4.628;2023-03-01T07:52:38;8.17;;;6.73;;
15130;SDS011;7666;50.920;4.628;2023-03-01T07:55:24;7.40;;;6.43;;
15130;SDS011;7666;50.920;4.628;2023-03-01T07:58:10;10.37;;;8.00;;
15130;SDS011;7666;50.920;4.628;2023-03-01T08:01:00;18.40;;;11.67;;
15130;SDS011;7666;50.920;4.628;2023-03-01T08:03:48;8.33;;;7.30;;
15130;SDS011;7666;50.920;4.628;2023-03-01T08:06:34;9.67;;;7.50;;
15130;SDS011;7666;50.920;4.628;2023-03-01T08:09:21;9.70;;;7.60;;
15130;SDS011;7666;50.920;4.628;2023-03-01T08:12:07;14.20;;;7.50;;
15130;SDS011;7666;50.920;4.628;2023-03-01T08:14:53;9.83;;;7.53;;
15130;SDS011;7666;50.920;4.628;2023-03-01T08:17:39;8.67;;;7.77;;
15130;SDS011;7666;50.920;4.628;2023-03-01T08:20:25;11.03;;;7.97;;
15130;SDS011;7666;50.920;4.628;2023-03-01T08:23:12;9.40;;;7.77;;
15130;SDS011;7666;50.920;4.628;2023-03-01T08:28:51;9.60;;;8.50;;
15130;SDS011;7666;50.920;4.628;2023-03-01T08:31:38;11.50;;;9.20;;
15130;SDS011;7666;50.920;4.628;2023-03-01T08:34:25;12.10;;;9.00;;
15130;SDS011;7666;50.920;4.628;2023-03-01T08:37:11;11.33;;;9.27;;
15130;SDS011;7666;50.920;4.628;2023-03-01T08:39:57;10.23;;;8.60;;
15130;SDS011;7666;50.920;4.628;2023-03-01T08:42:43;10.50;;;8.90;;
15130;SDS011;7666;50.920;4.628;2023-03-01T08:45:29;9.57;;;8.30;;
15130;SDS011;7666;50.920;4.628;2023-03-01T08:48:15;10.33;;;9.07;;
15130;SDS011;7666;50.920;4.628;2023-03-01T08:51:08;13.17;;;9.47;;
15130;SDS011;7666;50.920;4.628;2023-03-01T08:53:58;13.97;;;8.90;;
15130;SDS011;7666;50.920;4.628;2023-03-01T08:56:44;13.03;;;9.33;;
15130;SDS011;7666;50.920;4.628;2023-03-01T08:59:31;13.87;;;9.00;;
15130;SDS011;7666;50.920;4.628;2023-03-01T09:02:22;12.60;;;8.90;;
15130;SDS011;7666;50.920;4.628;2023-03-01T09:05:08;11.60;;;9.47;;
15130;SDS011;7666;50.920;4.628;2023-03-01T09:07:54;11.87;;;10.10;;
15130;SDS011;7666;50.920;4.628;2023-03-01T09:10:42;11.70;;;9.33;;
15130;SDS011;7666;50.920;4.628;2023-03-01T09:13:28;12.13;;;9.43;;
15130;SDS011;7666;50.920;4.628;2023-03-01T09:16:17;12.27;;;8.97;;
15130;SDS011;7666;50.920;4.628;2023-03-01T09:19:04;11.87;;;9.83;;
15130;SDS011;7666;50.920;4.628;2023-03-01T09:21:50;9.93;;;8.93;;
15130;SDS011;7666;50.920;4.628;2023-03-01T09:24:41;11.80;;;9.43;;
15130;SDS011;7666;50.920;4.628;2023-03-01T09:27:27;11.33;;;8.70;;
15130;SDS011;7666;50.920;4.628;2023-03-01T09:30:13;11.17;;;8.90;;
15130;SDS011;7666;50.920;4.628;2023-03-01T09:32:59;11.33;;;9.13;;
15130;SDS011;7666;50.920;4.628;2023-03-01T09:35:45;12.10;;;9.87;;
15130;SDS011;7666;50.920;4.628;2023-03-01T09:38:32;12.33;;;10.57;;
15130;SDS011;7666;50.920;4.628;2023-03-01T09:47:24;11.73;;;9.27;;
15130;SDS011;7666;50.920;4.628;2023-03-01T09:50:20;12.40;;;9.67;;
15130;SDS011;7666;50.920;4.628;2023-03-01T10:02:00;10.53;;;9.10;;
15130;SDS011;7666;50.920;4.628;2023-03-01T10:11:27;12.97;;;9.00;;
15130;SDS011;7666;50.920;4.628;2023-03-01T10:17:03;11.17;;;9.10;;
15130;SDS011;7666;50.920;4.628;2023-03-01T10:19:54;9.90;;;8.87;;
15130;SDS011;7666;50.920;4.628;2023-03-01T10:22:40;11.90;;;8.90;;
15130;SDS011;7666;50.920;4.628;2023-03-01T10:25:36;11.03;;;8.87;;
15130;SDS011;7666;50.920;4.628;2023-03-01T10:31:45;10.83;;;8.93;;
15130;SDS011;7666;50.920;4.628;2023-03-01T10:34:34;11.47;;;9.20;;
15130;SDS011;7666;50.920;4.628;2023-03-01T10:37:21;10.07;;;8.87;;
15130;SDS011;7666;50.920;4.628;2023-03-01T10:40:09;12.40;;;8.90;;
15130;SDS011;7666;50.920;4.628;2023-03-01T10:43:00;11.10;;;8.53;;
15130;SDS011;7666;50.920;4.628;2023-03-01T10:45:49;10.17;;;8.50;;
15130;SDS011;7666;50.920;4.628;2023-03-01T10:48:35;11.57;;;9.00;;
15130;SDS011;7666;50.920;4.628;2023-03-01T10:51:21;10.10;;;8.80;;
15130;SDS011;7666;50.920;4.628;2023-03-01T10:57:24;10.23;;;8.33;;
15130;SDS011;7666;50.920;4.628;2023-03-01T11:00:24;11.20;;;8.67;;
15130;SDS011;7666;50.920;4.628;2023-03-01T11:03:12;12.20;;;8.80;;
15130;SDS011;7666;50.920;4.628;2023-03-01T11:09:17;9.33;;;8.10;;
15130;SDS011;7666;50.920;4.628;2023-03-01T11:12:12;13.07;;;8.80;;
15130;SDS011;7666;50.920;4.628;2023-03-01T11:15:00;9.57;;;8.03;;
15130;SDS011;7666;50.920;4.628;2023-03-01T11:17:47;10.50;;;8.37;;
15130;SDS011;7666;50.920;4.628;2023-03-01T11:20:36;11.03;;;8.40;;
15130;SDS011;7666;50.920;4.628;2023-03-01T11:23:23;11.67;;;8.50;;
15130;SDS011;7666;50.920;4.628;2023-03-01T11:26:11;11.00;;;8.50;;
15130;SDS011;7666;50.920;4.628;2023-03-01T11:29:00;10.23;;;8.27;;
15130;SDS011;7666;50.920;4.628;2023-03-01T11:31:50;9.17;;;7.27;;
15130;SDS011;7666;50.920;4.628;2023-03-01T11:34:38;12.17;;;8.13;;
15130;SDS011;7666;50.920;4.628;2023-03-01T11:37:37;10.63;;;7.70;;
15130;SDS011;7666;50.920;4.628;2023-03-01T11:40:33;11.33;;;7.47;;
15130;SDS011;7666;50.920;4.628;2023-03-01T11:59:23;8.27;;;7.43;;
15130;SDS011;7666;50.920;4.628;2023-03-01T12:06:18;11.00;;;8.20;;
15130;SDS011;7666;50.920;4.628;2023-03-01T12:36:49;8.03;;;7.20;;
15130;SDS011;7666;50.920;4.628;2023-03-01T12:43:15;9.80;;;7.70;;
15130;SDS011;7666;50.920;4.628;2023-03-01T12:52:52;11.83;;;7.70;;
15130;SDS011;7666;50.920;4.628;2023-03-01T12:55:41;8.93;;;7.37;;
15130;SDS011;7666;50.920;4.628;2023-03-01T13:05:20;11.20;;;7.80;;
15130;SDS011;7666;50.920;4.628;2023-03-01T13:11:29;10.57;;;7.97;;
15130;SDS011;7666;50.920;4.628;2023-03-01T13:17:20;12.83;;;7.83;;
15130;SDS011;7666;50.920;4.628;2023-03-01T13:20:19;10.17;;;8.17;;
15130;SDS011;7666;50.920;4.628;2023-03-01T13:28:57;8.50;;;7.57;;
15130;SDS011;7666;50.920;4.628;2023-03-01T13:34:42;8.73;;;7.77;;
15130;SDS011;7666;50.920;4.628;2023-03-01T13:37:31;10.00;;;7.80;;
15130;SDS011;7666;50.920;4.628;2023-03-01T13:46:23;9.67;;;7.50;;
15130;SDS011;7666;50.920;4.628;2023-03-01T13:49:11;10.27;;;8.10;;
15130;SDS011;7666;50.920;4.628;2023-03-01T13:52:01;9.23;;;7.90;;
15130;SDS011;7666;50.920;4.628;2023-03-01T13:54:48;9.03;;;8.00;;
15130;SDS011;7666;50.920;4.628;2023-03-01T13:57:34;10.77;;;8.57;;
15130;SDS011;7666;50.920;4.628;2023-03-01T14:00:28;10.53;;;8.80;;
15130;SDS011;7666;50.920;4.628;2023-03-01T14:03:24;8.53;;;7.63;;
15130;SDS011;7666;50.920;4.628;2023-03-01T14:06:12;8.63;;;7.70;;
15130;SDS011;7666;50.920;4.628;2023-03-01T14:21:00;9.27;;;7.17;;
15130;SDS011;7666;50.920;4.628;2023-03-01T14:23:52;8.83;;;6.77;;
15130;SDS011;7666;50.920;4.628;2023-03-01T14:26:38;8.47;;;7.43;;
15130;SDS011;7666;50.920;4.628;2023-03-01T14:29:36;8.43;;;7.40;;
15130;SDS011;7666;50.920;4.628;2023-03-01T14:32:25;10.07;;;7.57;;
15130;SDS011;7666;50.920;4.628;2023-03-01T14:35:32;9.47;;;7.63;;
15130;SDS011;7666;50.920;4.628;2023-03-01T14:38:22;10.73;;;7.73;;
15130;SDS011;7666;50.920;4.628;2023-03-01T14:44:07;8.43;;;7.43;;
15130;SDS011;7666;50.920;4.628;2023-03-01T14:47:01;9.07;;;7.73;;
15130;SDS011;7666;50.920;4.628;2023-03-01T14:49:47;7.97;;;7.07;;
15130;SDS011;7666;50.920;4.628;2023-03-01T14:52:39;7.80;;;6.77;;
15130;SDS011;7666;50.920;4.628;2023-03-01T14:58:20;10.33;;;7.80;;
15130;SDS011;7666;50.920;4.628;2023-03-01T15:01:10;9.97;;;7.57;;
15130;SDS011;7666;50.920;4.628;2023-03-01T15:03:59;9.43;;;6.80;;
15130;SDS011;7666;50.920;4.628;2023-03-01T15:06:47;7.87;;;6.90;;
15130;SDS011;7666;50.920;4.628;2023-03-01T15:09:36;10.23;;;7.17;;
15130;SDS011;7666;50.920;4.628;2023-03-01T15:18:25;7.57;;;6.10;;
15130;SDS011;7666;50.920;4.628;2023-03-01T15:21:17;8.80;;;6.73;;
15130;SDS011;7666;50.920;4.628;2023-03-01T15:27:00;7.70;;;6.70;;
15130;SDS011;7666;50.920;4.628;2023-03-01T15:29:52;8.60;;;6.60;;
15130;SDS011;7666;50.920;4.628;2023-03-01T15:32:48;9.57;;;6.20;;
15130;SDS011;7666;50.920;4.628;2023-03-01T15:48:02;8.77;;;5.83;;
15130;SDS011;7666;50.920;4.628;2023-03-01T15:50:56;8.63;;;6.33;;
15130;SDS011;7666;50.920;4.628;2023-03-01T15:53:46;8.63;;;6.20;;
15130;SDS011;7666;50.920;4.628;2023-03-01T15:56:35;9.27;;;6.30;;
15130;SDS011;7666;50.920;4.628;2023-03-01T15:59:21;7.90;;;5.97;;
15130;SDS011;7666;50.920;4.628;2023-03-01T16:02:11;7.53;;;5.77;;
15130;SDS011;7666;50.920;4.628;2023-03-01T16:05:00;9.93;;;6.17;;
15130;SDS011;7666;50.920;4.628;2023-03-01T16:07:46;9.00;;;6.07;;
15130;SDS011;7666;50.920;4.628;2023-03-01T16:10:33;8.33;;;6.47;;
15130;SDS011;7666;50.920;4.628;2023-03-01T16:13:19;10.30;;;6.23;;
15130;SDS011;7666;50.920;4.628;2023-03-01T16:16:05;8.10;;;6.07;;
15130;SDS011;7666;50.920;4.628;2023-03-01T16:18:51;7.83;;;5.70;;
15130;SDS011;7666;50.920;4.628;2023-03-01T16:21:37;7.07;;;6.20;;
15130;SDS011;7666;50.920;4.628;2023-03-01T16:24:23;9.50;;;6.43;;
15130;SDS011;7666;50.920;4.628;2023-03-01T16:27:11;8.27;;;6.43;;
15130;SDS011;7666;50.920;4.628;2023-03-01T16:29:57;9.87;;;6.40;;
15130;SDS011;7666;50.920;4.628;2023-03-01T16:32:44;7.77;;;6.10;;
15130;SDS011;7666;50.920;4.628;2023-03-01T16:35:30;8.03;;;6.83;;
15130;SDS011;7666;50.920;4.628;2023-03-01T16:38:16;10.60;;;6.57;;
15130;SDS011;7666;50.920;4.628;2023-03-01T16:41:02;8.20;;;6.40;;
15130;SDS011;7666;50.920;4.628;2023-03-01T16:43:49;9.70;;;5.63;;
15130;SDS011;7666;50.920;4.628;2023-03-01T16:46:35;11.47;;;8.20;;
15130;SDS011;7666;50.920;4.628;2023-03-01T16:49:21;13.93;;;7.07;;
15130;SDS011;7666;50.920;4.628;2023-03-01T16:52:07;8.43;;;6.67;;
15130;SDS011;7666;50.920;4.628;2023-03-01T16:54:54;8.10;;;6.13;;
15130;SDS011;7666;50.920;4.628;2023-03-01T16:57:40;8.40;;;6.67;;
15130;SDS011;7666;50.920;4.628;2023-03-01T17:00:26;9.73;;;6.70;;
15130;SDS011;7666;50.920;4.628;2023-03-01T17:03:12;9.40;;;7.07;;
15130;SDS011;7666;50.920;4.628;2023-03-01T17:06:02;8.83;;;7.23;;
15130;SDS011;7666;50.920;4.628;2023-03-01T17:08:50;9.13;;;6.97;;
15130;SDS011;7666;50.920;4.628;2023-03-01T17:11:36;8.53;;;6.20;;
15130;SDS011;7666;50.920;4.628;2023-03-01T17:14:22;9.07;;;6.03;;
15130;SDS011;7666;50.920;4.628;2023-03-01T17:17:08;7.30;;;6.10;;
15130;SDS011;7666;50.920;4.628;2023-03-01T17:19:56;6.63;;;5.77;;
15130;SDS011;7666;50.920;4.628;2023-03-01T17:22:42;7.93;;;5.93;;
15130;SDS011;7666;50.920;4.628;2023-03-01T17:25:28;8.30;;;6.17;;
15130;SDS011;7666;50.920;4.628;2023-03-01T17:28:14;7.17;;;6.03;;
15130;SDS011;7666;50.920;4.628;2023-03-01T17:31:01;7.67;;;6.00;;
15130;SDS011;7666;50.920;4.628;2023-03-01T17:33:48;8.53;;;6.40;;
15130;SDS011;7666;50.920;4.628;2023-03-01T17:36:34;8.37;;;7.47;;
15130;SDS011;7666;50.920;4.628;2023-03-01T17:39:28;7.77;;;6.80;;
15130;SDS011;7666;50.920;4.628;2023-03-01T17:42:20;10.43;;;6.87;;
15130;SDS011;7666;50.920;4.628;2023-03-01T17:45:06;10.53;;;6.30;;
15130;SDS011;7666;50.920;4.628;2023-03-01T17:47:52;8.90;;;6.60;;
15130;SDS011;7666;50.920;4.628;2023-03-01T17:50:38;8.13;;;6.53;;
15130;SDS011;7666;50.920;4.628;2023-03-01T17:53:27;8.67;;;5.93;;
15130;SDS011;7666;50.920;4.628;2023-03-01T17:56:14;7.87;;;6.30;;
15130;SDS011;7666;50.920;4.628;2023-03-01T17:59:00;9.13;;;6.83;;
15130;SDS011;7666;50.920;4.628;2023-03-01T18:01:46;29.67;;;18.70;;
15130;SDS011;7666;50.920;4.628;2023-03-01T18:04:32;27.93;;;15.60;;
15130;SDS011;7666;50.920;4.628;2023-03-01T18:07:18;23.43;;;11.70;;
15130;SDS011;7666;50.920;4.628;2023-03-01T18:10:04;15.80;;;9.70;;
15130;SDS011;7666;50.920;4.628;2023-03-01T18:12:51;9.50;;;7.10;;
15130;SDS011;7666;50.920;4.628;2023-03-01T18:15:37;8.87;;;6.97;;
15130;SDS011;7666;50.920;4.628;2023-03-01T18:18:23;8.83;;;7.53;;
15130;SDS011;7666;50.920;4.628;2023-03-01T18:21:09;9.87;;;6.90;;
15130;SDS011;7666;50.920;4.628;2023-03-01T18:23:56;9.67;;;7.33;;
15130;SDS011;7666;50.920;4.628;2023-03-01T18:26:43;8.00;;;7.13;;
15130;SDS011;7666;50.920;4.628;2023-03-01T18:29:29;7.73;;;6.93;;
15130;SDS011;7666;50.920;4.628;2023-03-01T18:32:15;8.43;;;6.70;;
15130;SDS011;7666;50.920;4.628;2023-03-01T18:35:03;8.90;;;6.87;;
15130;SDS011;7666;50.920;4.628;2023-03-01T18:37:49;10.10;;;7.40;;
15130;SDS011;7666;50.920;4.628;2023-03-01T18:40:35;9.90;;;7.10;;
15130;SDS011;7666;50.920;4.628;2023-03-01T18:43:22;10.87;;;7.07;;
15130;SDS011;7666;50.920;4.628;2023-03-01T18:46:09;9.47;;;7.00;;
15130;SDS011;7666;50.920;4.628;2023-03-01T18:48:55;9.03;;;7.10;;
15130;SDS011;7666;50.920;4.628;2023-03-01T18:51:41;11.30;;;7.40;;
15130;SDS011;7666;50.920;4.628;2023-03-01T18:54:27;8.37;;;7.30;;
15130;SDS011;7666;50.920;4.628;2023-03-01T18:57:13;9.70;;;7.27;;
15130;SDS011;7666;50.920;4.628;2023-03-01T18:59:59;10.17;;;7.23;;
15130;SDS011;7666;50.920;4.628;2023-03-01T19:02:45;9.83;;;7.50;;
15130;SDS011;7666;50.920;4.628;2023-03-01T19:05:31;10.83;;;8.47;;
15130;SDS011;7666;50.920;4.628;2023-03-01T19:08:17;10.80;;;8.07;;
15130;SDS011;7666;50.920;4.628;2023-03-01T19:11:04;8.43;;;7.50;;
15130;SDS011;7666;50.920;4.628;2023-03-01T19:13:50;11.73;;;8.27;;
15130;SDS011;7666;50.920;4.628;2023-03-01T19:16:37;9.73;;;8.40;;
15130;SDS011;7666;50.920;4.628;2023-03-01T19:19:23;11.47;;;8.83;;
15130;SDS011;7666;50.920;4.628;2023-03-01T19:22:10;11.20;;;9.07;;
15130;SDS011;7666;50.920;4.628;2023-03-01T19:24:56;11.50;;;8.37;;
15130;SDS011;7666;50.920;4.628;2023-03-01T19:27:42;11.67;;;8.73;;
15130;SDS011;7666;50.920;4.628;2023-03-01T19:30:28;12.80;;;8.67;;
15130;SDS011;7666;50.920;4.628;2023-03-01T19:33:14;10.93;;;9.03;;
15130;SDS011;7666;50.920;4.628;2023-03-01T19:36:01;13.27;;;9.03;;
15130;SDS011;7666;50.920;4.628;2023-03-01T19:38:48;10.33;;;8.10;;
15130;SDS011;7666;50.920;4.628;2023-03-01T19:41:34;11.00;;;9.40;;
15130;SDS011;7666;50.920;4.628;2023-03-01T19:44:20;14.50;;;10.50;;